sensor_id;sensor_type;location;lat;lon;timestamp;P1;durP1;ratioP1;P2;durP2;ratioP2
52456;SDS011;38369;52.840;7.082;2022-11-15T00:00:53;27.85;;;17.83;;
52456;SDS011;38369;52.840;7.082;2022-11-15T00:03:20;27.83;;;18.95;;
52456;SDS011;38369;52.840;7.082;2022-11-15T00:05:47;27.25;;;19.08;;
52456;SDS011;38369;52.840;7.082;2022-11-15T00:08:13;26.77;;;18.50;;
52456;SDS011;38369;52.840;7.082;2022-11-15T00:10:39;23.65;;;17.45;;
52456;SDS011;38369;52.840;7.082;2022-11-15T00:13:08;25.08;;;17.38;;
52456;SDS011;38369;52.840;7.082;2022-11-15T00:15:38;29.48;;;18.30;;
52456;SDS011;38369;52.840;7.082;2022-11-15T00:18:05;25.73;;;17.88;;
52456;SDS011;38369;52.840;7.082;2022-11-15T00:20:33;29.65;;;19.20;;
52456;SDS011;38369;52.840;7.082;2022-11-15T00:22:59;31.10;;;21.13;;
52456;SDS011;38369;52.840;7.082;2022-11-15T00:25:25;33.33;;;21.52;;
52456;SDS011;38369;52.840;7.082;2022-11-15T00:27:54;36.47;;;24.05;;
52456;SDS011;38369;52.840;7.082;2022-11-15T00:30:21;39.85;;;24.60;;
52456;SDS011;38369;52.840;7.082;2022-11-15T00:32:47;32.33;;;23.95;;
52456;SDS011;38369;52.840;7.082;2022-11-15T00:35:13;36.70;;;24.45;;
52456;SDS011;38369;52.840;7.082;2022-11-15T00:37:39;29.25;;;21.05;;
52456;SDS011;38369;52.840;7.082;2022-11-15T00:40:06;29.05;;;20.27;;
52456;SDS011;38369;52.840;7.082;2022-11-15T00:42:32;32.05;;;21.83;;
52456;SDS011;38369;52.840;7.082;2022-11-15T00:44:58;29.17;;;19.55;;
52456;SDS011;38369;52.840;7.082;2022-11-15T00:47:24;28.08;;;20.65;;
52456;SDS011;38369;52.840;7.082;2022-11-15T00:49:50;29.45;;;20.83;;
52456;SDS011;38369;52.840;7.082;2022-11-15T00:52:16;31.33;;;20.90;;
52456;SDS011;38369;52.840;7.082;2022-11-15T00:54:42;33.38;;;22.02;;
52456;SDS011;38369;52.840;7.082;2022-11-15T00:57:08;28.90;;;20.75;;
52456;SDS011;38369;52.840;7.082;2022-11-15T00:59:34;32.50;;;20.98;;
52456;SDS011;38369;52.840;7.082;2022-11-15T01:02:00;32.35;;;20.63;;
52456;SDS011;38369;52.840;7.082;2022-11-15T01:04:26;32.42;;;21.50;;
52456;SDS011;38369;52.840;7.082;2022-11-15T01:06:53;33.95;;;21.50;;
52456;SDS011;38369;52.840;7.082;2022-11-15T01:09:19;27.88;;;18.88;;
52456;SDS011;38369;52.840;7.082;2022-11-15T01:11:45;30.70;;;20.17;;
52456;SDS011;38369;52.840;7.082;2022-11-15T01:14:11;32.15;;;21.25;;
52456;SDS011;38369;52.840;7.082;2022-11-15T01:16:37;32.00;;;19.90;;
52456;SDS011;38369;52.840;7.082;2022-11-15T01:19:03;32.25;;;19.98;;
52456;SDS011;38369;52.840;7.082;2022-11-15T01:21:29;32.58;;;20.65;;
52456;SDS011;38369;52.840;7.082;2022-11-15T01:23:56;27.88;;;19.95;;
52456;SDS011;38369;52.840;7.082;2022-11-15T01:26:22;29.92;;;20.58;;
52456;SDS011;38369;52.840;7.082;2022-11-15T01:28:49;32.22;;;20.10;;
52456;SDS011;38369;52.840;7.082;2022-11-15T01:31:17;31.25;;;19.85;;
52456;SDS011;38369;52.840;7.082;2022-11-15T01:33:43;29.77;;;19.40;;
52456;SDS011;38369;52.840;7.082;2022-11-15T01:36:13;28.17;;;19.67;;
52456;SDS011;38369;52.840;7.082;2022-11-15T01:38:40;27.75;;;20.65;;
52456;SDS011;38369;52.840;7.082;2022-11-15T01:41:06;31.10;;;20.20;;
52456;SDS011;38369;52.840;7.082;2022-11-15T01:43:38;28.50;;;19.20;;
52456;SDS011;38369;52.840;7.082;2022-11-15T01:48:43;27.30;;;18.90;;
52456;SDS011;38369;52.840;7.082;2022-11-15T01:51:09;27.63;;;17.40;;
52456;SDS011;38369;52.840;7.082;2022-11-15T01:53:37;27.42;;;17.92;;
52456;SDS011;38369;52.840;7.082;2022-11-15T01:56:05;23.80;;;15.65;;
52456;SDS011;38369;52.840;7.082;2022-11-15T01:58:32;31.92;;;19.02;;
52456;SDS011;38369;52.840;7.082;2022-11-15T02:00:59;24.55;;;17.48;;
52456;SDS011;38369;52.840;7.082;2022-11-15T02:03:29;27.65;;;18.35;;
52456;SDS011;38369;52.840;7.082;2022-11-15T02:05:57;27.83;;;17.52;;
52456;SDS011;38369;52.840;7.082;2022-11-15T02:08:23;27.25;;;16.83;;
52456;SDS011;38369;52.840;7.082;2022-11-15T02:10:49;25.80;;;16.92;;
52456;SDS011;38369;52.840;7.082;2022-11-15T02:13:15;29.08;;;19.58;;
52456;SDS011;38369;52.840;7.082;2022-11-15T02:18:35;37.35;;;20.55;;
52456;SDS011;38369;52.840;7.082;2022-11-15T02:21:09;33.53;;;20.42;;
52456;SDS011;38369;52.840;7.082;2022-11-15T02:36:18;34.45;;;18.67;;
52456;SDS011;38369;52.840;7.082;2022-11-15T02:38:50;30.50;;;19.02;;
52456;SDS011;38369;52.840;7.082;2022-11-15T02:41:27;29.83;;;19.13;;
52456;SDS011;38369;52.840;7.082;2022-11-15T02:43:59;31.00;;;19.50;;
52456;SDS011;38369;52.840;7.082;2022-11-15T02:49:14;35.55;;;19.48;;
52456;SDS011;38369;52.840;7.082;2022-11-15T02:51:40;29.30;;;18.88;;
52456;SDS011;38369;52.840;7.082;2022-11-15T02:54:11;35.13;;;20.70;;
52456;SDS011;38369;52.840;7.082;2022-11-15T02:56:38;32.37;;;20.20;;
52456;SDS011;38369;52.840;7.082;2022-11-15T02:59:16;31.75;;;19.05;;
52456;SDS011;38369;52.840;7.082;2022-11-15T03:01:58;32.72;;;19.08;;
52456;SDS011;38369;52.840;7.082;2022-11-15T03:11:56;34.40;;;19.67;;
52456;SDS011;38369;52.840;7.082;2022-11-15T03:14:25;32.72;;;20.42;;
52456;SDS011;38369;52.840;7.082;2022-11-15T03:17:02;36.85;;;21.58;;
52456;SDS011;38369;52.840;7.082;2022-11-15T03:19:40;32.72;;;20.55;;
52456;SDS011;38369;52.840;7.082;2022-11-15T03:22:09;41.08;;;22.55;;
52456;SDS011;38369;52.840;7.082;2022-11-15T03:24:37;41.58;;;23.63;;
52456;SDS011;38369;52.840;7.082;2022-11-15T03:27:05;38.17;;;22.05;;
52456;SDS011;38369;52.840;7.082;2022-11-15T03:29:33;37.10;;;22.38;;
52456;SDS011;38369;52.840;7.082;2022-11-15T03:32:06;36.58;;;22.52;;
52456;SDS011;38369;52.840;7.082;2022-11-15T03:37:05;42.00;;;23.17;;
52456;SDS011;38369;52.840;7.082;2022-11-15T03:39:31;39.58;;;22.13;;
52456;SDS011;38369;52.840;7.082;2022-11-15T03:42:20;41.33;;;25.48;;
52456;SDS011;38369;52.840;7.082;2022-11-15T03:47:34;43.38;;;24.38;;
52456;SDS011;38369;52.840;7.082;2022-11-15T03:50:07;45.47;;;25.92;;
52456;SDS011;38369;52.840;7.082;2022-11-15T03:52:34;48.53;;;27.00;;
52456;SDS011;38369;52.840;7.082;2022-11-15T03:55:01;47.58;;;25.75;;
52456;SDS011;38369;52.840;7.082;2022-11-15T03:57:27;44.97;;;25.02;;
52456;SDS011;38369;52.840;7.082;2022-11-15T03:59:53;45.00;;;24.65;;
52456;SDS011;38369;52.840;7.082;2022-11-15T04:02:19;45.35;;;25.27;;
52456;SDS011;38369;52.840;7.082;2022-11-15T04:04:45;43.50;;;25.38;;
52456;SDS011;38369;52.840;7.082;2022-11-15T04:07:11;46.35;;;26.10;;
52456;SDS011;38369;52.840;7.082;2022-11-15T04:09:37;46.38;;;25.73;;
52456;SDS011;38369;52.840;7.082;2022-11-15T04:12:23;48.25;;;25.77;;
52456;SDS011;38369;52.840;7.082;2022-11-15T04:14:59;47.38;;;24.95;;
52456;SDS011;38369;52.840;7.082;2022-11-15T04:23:01;49.22;;;26.13;;
52456;SDS011;38369;52.840;7.082;2022-11-15T04:25:46;57.33;;;27.75;;
52456;SDS011;38369;52.840;7.082;2022-11-15T04:28:15;50.10;;;26.58;;
52456;SDS011;38369;52.840;7.082;2022-11-15T04:30:41;44.83;;;25.80;;
52456;SDS011;38369;52.840;7.082;2022-11-15T04:33:07;54.03;;;25.30;;
52456;SDS011;38369;52.840;7.082;2022-11-15T04:35:33;52.22;;;28.33;;
52456;SDS011;38369;52.840;7.082;2022-11-15T04:37:59;54.17;;;27.42;;
52456;SDS011;38369;52.840;7.082;2022-11-15T04:40:26;50.47;;;28.50;;
52456;SDS011;38369;52.840;7.082;2022-11-15T04:42:52;56.60;;;31.00;;
52456;SDS011;38369;52.840;7.082;2022-11-15T04:45:18;50.85;;;28.67;;
52456;SDS011;38369;52.840;7.082;2022-11-15T04:47:44;48.03;;;26.70;;
52456;SDS011;38369;52.840;7.082;2022-11-15T04:50:11;49.97;;;27.08;;
52456;SDS011;38369;52.840;7.082;2022-11-15T04:52:49;44.55;;;25.35;;
52456;SDS011;38369;52.840;7.082;2022-11-15T04:55:16;51.88;;;26.25;;
52456;SDS011;38369;52.840;7.082;2022-11-15T04:57:42;45.35;;;26.52;;
52456;SDS011;38369;52.840;7.082;2022-11-15T05:00:09;46.42;;;25.00;;
52456;SDS011;38369;52.840;7.082;2022-11-15T05:02:35;44.63;;;25.60;;
52456;SDS011;38369;52.840;7.082;2022-11-15T05:05:20;45.38;;;25.23;;
52456;SDS011;38369;52.840;7.082;2022-11-15T05:07:46;44.95;;;25.10;;
52456;SDS011;38369;52.840;7.082;2022-11-15T05:10:12;44.17;;;24.83;;
52456;SDS011;38369;52.840;7.082;2022-11-15T05:12:38;45.03;;;27.70;;
52456;SDS011;38369;52.840;7.082;2022-11-15T05:15:04;41.90;;;25.58;;
52456;SDS011;38369;52.840;7.082;2022-11-15T05:17:30;44.10;;;24.58;;
52456;SDS011;38369;52.840;7.082;2022-11-15T05:19:57;43.55;;;24.30;;
52456;SDS011;38369;52.840;7.082;2022-11-15T05:22:23;46.15;;;24.90;;
52456;SDS011;38369;52.840;7.082;2022-11-15T05:24:49;38.00;;;24.42;;
52456;SDS011;38369;52.840;7.082;2022-11-15T05:27:15;37.03;;;23.80;;
52456;SDS011;38369;52.840;7.082;2022-11-15T05:29:41;36.45;;;22.83;;
52456;SDS011;38369;52.840;7.082;2022-11-15T05:32:07;41.58;;;24.35;;
52456;SDS011;38369;52.840;7.082;2022-11-15T05:34:34;44.60;;;25.17;;
52456;SDS011;38369;52.840;7.082;2022-11-15T05:37:00;40.13;;;23.88;;
52456;SDS011;38369;52.840;7.082;2022-11-15T05:39:27;41.38;;;25.02;;
52456;SDS011;38369;52.840;7.082;2022-11-15T05:41:54;35.03;;;23.02;;
52456;SDS011;38369;52.840;7.082;2022-11-15T05:44:22;41.17;;;23.77;;
52456;SDS011;38369;52.840;7.082;2022-11-15T05:46:49;44.00;;;23.85;;
52456;SDS011;38369;52.840;7.082;2022-11-15T05:49:19;40.15;;;22.90;;
52456;SDS011;38369;52.840;7.082;2022-11-15T05:51:45;37.95;;;23.17;;
52456;SDS011;38369;52.840;7.082;2022-11-15T05:54:13;40.28;;;22.45;;
52456;SDS011;38369;52.840;7.082;2022-11-15T05:56:39;34.50;;;21.08;;
52456;SDS011;38369;52.840;7.082;2022-11-15T05:59:05;37.92;;;21.85;;
52456;SDS011;38369;52.840;7.082;2022-11-15T06:01:33;35.78;;;23.67;;
52456;SDS011;38369;52.840;7.082;2022-11-15T06:03:59;41.08;;;24.92;;
52456;SDS011;38369;52.840;7.082;2022-11-15T06:06:26;32.92;;;22.67;;
52456;SDS011;38369;52.840;7.082;2022-11-15T06:08:52;42.25;;;24.42;;
52456;SDS011;38369;52.840;7.082;2022-11-15T06:11:18;38.90;;;23.60;;
52456;SDS011;38369;52.840;7.082;2022-11-15T06:13:45;38.15;;;22.27;;
52456;SDS011;38369;52.840;7.082;2022-11-15T06:16:11;29.88;;;21.63;;
52456;SDS011;38369;52.840;7.082;2022-11-15T06:18:37;38.72;;;24.02;;
52456;SDS011;38369;52.840;7.082;2022-11-15T06:21:03;38.50;;;23.45;;
52456;SDS011;38369;52.840;7.082;2022-11-15T06:23:33;36.75;;;23.00;;
52456;SDS011;38369;52.840;7.082;2022-11-15T06:26:00;37.60;;;22.45;;
52456;SDS011;38369;52.840;7.082;2022-11-15T06:28:29;39.45;;;24.05;;
52456;SDS011;38369;52.840;7.082;2022-11-15T06:31:01;35.95;;;23.48;;
52456;SDS011;38369;52.840;7.082;2022-11-15T06:33:27;34.83;;;23.42;;
52456;SDS011;38369;52.840;7.082;2022-11-15T06:35:53;34.80;;;22.98;;
52456;SDS011;38369;52.840;7.082;2022-11-15T06:38:19;37.42;;;23.35;;
52456;SDS011;38369;52.840;7.082;2022-11-15T06:40:45;32.85;;;21.98;;
52456;SDS011;38369;52.840;7.082;2022-11-15T06:43:11;33.55;;;21.65;;
52456;SDS011;38369;52.840;7.082;2022-11-15T06:45:37;33.08;;;21.25;;
52456;SDS011;38369;52.840;7.082;2022-11-15T06:48:04;33.97;;;23.13;;
52456;SDS011;38369;52.840;7.082;2022-11-15T06:50:30;33.33;;;21.63;;
52456;SDS011;38369;52.840;7.082;2022-11-15T06:53:00;35.85;;;20.80;;
52456;SDS011;38369;52.840;7.082;2022-11-15T06:55:26;32.97;;;21.17;;
52456;SDS011;38369;52.840;7.082;2022-11-15T06:57:52;30.77;;;21.38;;
52456;SDS011;38369;52.840;7.082;2022-11-15T07:00:20;31.60;;;19.73;;
52456;SDS011;38369;52.840;7.082;2022-11-15T07:02:47;35.40;;;21.67;;
52456;SDS011;38369;52.840;7.082;2022-11-15T07:05:14;34.00;;;21.00;;
52456;SDS011;38369;52.840;7.082;2022-11-15T07:07:40;32.42;;;20.98;;
52456;SDS011;38369;52.840;7.082;2022-11-15T07:10:06;32.17;;;21.25;;
52456;SDS011;38369;52.840;7.082;2022-11-15T07:12:32;30.77;;;21.50;;
52456;SDS011;38369;52.840;7.082;2022-11-15T07:14:58;34.03;;;21.15;;
52456;SDS011;38369;52.840;7.082;2022-11-15T07:17:24;33.15;;;21.05;;
52456;SDS011;38369;52.840;7.082;2022-11-15T07:19:50;35.85;;;20.55;;
52456;SDS011;38369;52.840;7.082;2022-11-15T07:22:16;32.30;;;20.70;;
52456;SDS011;38369;52.840;7.082;2022-11-15T07:24:42;29.60;;;20.35;;
52456;SDS011;38369;52.840;7.082;2022-11-15T07:27:08;30.13;;;19.88;;
52456;SDS011;38369;52.840;7.082;2022-11-15T07:29:35;32.38;;;20.90;;
52456;SDS011;38369;52.840;7.082;2022-11-15T07:32:01;33.20;;;20.85;;
52456;SDS011;38369;52.840;7.082;2022-11-15T07:34:27;32.25;;;21.55;;
52456;SDS011;38369;52.840;7.082;2022-11-15T07:36:53;33.92;;;21.25;;
52456;SDS011;38369;52.840;7.082;2022-11-15T07:39:19;31.45;;;22.05;;
52456;SDS011;38369;52.840;7.082;2022-11-15T07:41:45;33.50;;;21.30;;
52456;SDS011;38369;52.840;7.082;2022-11-15T07:44:13;33.13;;;20.00;;
52456;SDS011;38369;52.840;7.082;2022-11-15T07:46:39;32.60;;;20.77;;
52456;SDS011;38369;52.840;7.082;2022-11-15T07:49:05;31.83;;;21.65;;
52456;SDS011;38369;52.840;7.082;2022-11-15T07:51:31;34.05;;;21.33;;
52456;SDS011;38369;52.840;7.082;2022-11-15T07:53:57;34.15;;;22.42;;
52456;SDS011;38369;52.840;7.082;2022-11-15T07:56:23;35.78;;;22.40;;
52456;SDS011;38369;52.840;7.082;2022-11-15T07:58:49;34.90;;;22.35;;
52456;SDS011;38369;52.840;7.082;2022-11-15T08:01:15;31.50;;;22.05;;
52456;SDS011;38369;52.840;7.082;2022-11-15T08:03:41;36.00;;;21.88;;
52456;SDS011;38369;52.840;7.082;2022-11-15T08:06:07;32.33;;;20.85;;
52456;SDS011;38369;52.840;7.082;2022-11-15T08:08:33;28.95;;;20.42;;
52456;SDS011;38369;52.840;7.082;2022-11-15T08:11:00;32.05;;;20.38;;
52456;SDS011;38369;52.840;7.082;2022-11-15T08:13:26;28.70;;;19.65;;
52456;SDS011;38369;52.840;7.082;2022-11-15T08:15:56;30.75;;;19.70;;
52456;SDS011;38369;52.840;7.082;2022-11-15T08:18:22;33.60;;;21.20;;
52456;SDS011;38369;52.840;7.082;2022-11-15T08:20:48;29.00;;;19.42;;
52456;SDS011;38369;52.840;7.082;2022-11-15T08:23:15;30.60;;;20.45;;
52456;SDS011;38369;52.840;7.082;2022-11-15T08:25:41;31.92;;;19.60;;
52456;SDS011;38369;52.840;7.082;2022-11-15T08:28:07;30.27;;;19.83;;
52456;SDS011;38369;52.840;7.082;2022-11-15T08:30:34;32.13;;;21.70;;
52456;SDS011;38369;52.840;7.082;2022-11-15T08:33:01;29.38;;;20.38;;
52456;SDS011;38369;52.840;7.082;2022-11-15T08:35:27;29.73;;;20.35;;
52456;SDS011;38369;52.840;7.082;2022-11-15T08:37:54;30.83;;;19.65;;
52456;SDS011;38369;52.840;7.082;2022-11-15T08:40:20;32.00;;;20.50;;
52456;SDS011;38369;52.840;7.082;2022-11-15T08:42:46;33.15;;;20.42;;
52456;SDS011;38369;52.840;7.082;2022-11-15T08:45:12;35.58;;;22.00;;
52456;SDS011;38369;52.840;7.082;2022-11-15T08:47:39;28.45;;;19.80;;
52456;SDS011;38369;52.840;7.082;2022-11-15T08:50:05;28.45;;;19.70;;
52456;SDS011;38369;52.840;7.082;2022-11-15T08:52:31;30.17;;;21.00;;
52456;SDS011;38369;52.840;7.082;2022-11-15T08:54:57;31.02;;;21.33;;
52456;SDS011;38369;52.840;7.082;2022-11-15T08:57:24;26.83;;;19.85;;
52456;SDS011;38369;52.840;7.082;2022-11-15T08:59:50;33.60;;;20.52;;
52456;SDS011;38369;52.840;7.082;2022-11-15T09:02:16;27.23;;;19.50;;
52456;SDS011;38369;52.840;7.082;2022-11-15T09:04:42;30.50;;;19.60;;
52456;SDS011;38369;52.840;7.082;2022-11-15T09:07:09;25.75;;;18.58;;
52456;SDS011;38369;52.840;7.082;2022-11-15T09:09:35;28.92;;;20.25;;
52456;SDS011;38369;52.840;7.082;2022-11-15T09:12:02;30.10;;;20.10;;
52456;SDS011;38369;52.840;7.082;2022-11-15T09:14:28;30.05;;;21.90;;
52456;SDS011;38369;52.840;7.082;2022-11-15T09:16:54;32.72;;;20.65;;
52456;SDS011;38369;52.840;7.082;2022-11-15T09:19:20;28.63;;;19.35;;
52456;SDS011;38369;52.840;7.082;2022-11-15T09:21:46;28.80;;;20.70;;
52456;SDS011;38369;52.840;7.082;2022-11-15T09:24:13;30.85;;;21.42;;
52456;SDS011;38369;52.840;7.082;2022-11-15T09:26:39;30.20;;;20.95;;
52456;SDS011;38369;52.840;7.082;2022-11-15T09:29:06;31.90;;;20.38;;
52456;SDS011;38369;52.840;7.082;2022-11-15T09:31:32;27.90;;;20.50;;
52456;SDS011;38369;52.840;7.082;2022-11-15T09:33:58;27.75;;;20.60;;
52456;SDS011;38369;52.840;7.082;2022-11-15T09:36:24;28.45;;;20.08;;
52456;SDS011;38369;52.840;7.082;2022-11-15T09:38:50;28.52;;;19.75;;
52456;SDS011;38369;52.840;7.082;2022-11-15T09:44:09;27.65;;;18.95;;
52456;SDS011;38369;52.840;7.082;2022-11-15T09:49:03;25.23;;;18.50;;
52456;SDS011;38369;52.840;7.082;2022-11-15T09:51:33;28.40;;;19.50;;
52456;SDS011;38369;52.840;7.082;2022-11-15T09:56:30;26.42;;;17.90;;
52456;SDS011;38369;52.840;7.082;2022-11-15T09:59:01;24.00;;;17.88;;
52456;SDS011;38369;52.840;7.082;2022-11-15T10:03:59;29.95;;;20.42;;
52456;SDS011;38369;52.840;7.082;2022-11-15T10:06:25;30.13;;;19.45;;
52456;SDS011;38369;52.840;7.082;2022-11-15T10:11:36;27.63;;;18.58;;
52456;SDS011;38369;52.840;7.082;2022-11-15T10:16:43;26.17;;;19.17;;
52456;SDS011;38369;52.840;7.082;2022-11-15T10:24:32;31.23;;;18.35;;
52456;SDS011;38369;52.840;7.082;2022-11-15T10:26:59;25.17;;;16.63;;
52456;SDS011;38369;52.840;7.082;2022-11-15T10:29:26;25.67;;;17.05;;
52456;SDS011;38369;52.840;7.082;2022-11-15T10:31:52;22.02;;;17.05;;
52456;SDS011;38369;52.840;7.082;2022-11-15T10:34:22;22.38;;;17.95;;
52456;SDS011;38369;52.840;7.082;2022-11-15T10:39:14;22.15;;;16.15;;
52456;SDS011;38369;52.840;7.082;2022-11-15T10:41:41;23.35;;;15.68;;
52456;SDS011;38369;52.840;7.082;2022-11-15T10:46:37;25.50;;;18.52;;
52456;SDS011;38369;52.840;7.082;2022-11-15T10:51:49;21.17;;;17.55;;
52456;SDS011;38369;52.840;7.082;2022-11-15T10:54:21;26.17;;;16.30;;
52456;SDS011;38369;52.840;7.082;2022-11-15T10:56:50;18.08;;;16.05;;
52456;SDS011;38369;52.840;7.082;2022-11-15T10:59:20;24.80;;;17.83;;
52456;SDS011;38369;52.840;7.082;2022-11-15T11:01:48;24.23;;;17.75;;
52456;SDS011;38369;52.840;7.082;2022-11-15T11:04:14;18.38;;;15.82;;
52456;SDS011;38369;52.840;7.082;2022-11-15T11:06:50;17.30;;;15.40;;
52456;SDS011;38369;52.840;7.082;2022-11-15T11:11:59;20.77;;;15.93;;
52456;SDS011;38369;52.840;7.082;2022-11-15T11:14:26;17.15;;;14.88;;
52456;SDS011;38369;52.840;7.082;2022-11-15T11:17:13;16.38;;;14.35;;
52456;SDS011;38369;52.840;7.082;2022-11-15T11:22:29;15.18;;;13.57;;
52456;SDS011;38369;52.840;7.082;2022-11-15T11:32:49;11.35;;;10.23;;
52456;SDS011;38369;52.840;7.082;2022-11-15T11:35:22;10.93;;;9.00;;
52456;SDS011;38369;52.840;7.082;2022-11-15T11:37:51;9.38;;;8.05;;
52456;SDS011;38369;52.840;7.082;2022-11-15T11:40:32;8.95;;;7.82;;
52456;SDS011;38369;52.840;7.082;2022-11-15T11:43:21;10.23;;;7.68;;
52456;SDS011;38369;52.840;7.082;2022-11-15T11:45:53;7.80;;;5.30;;
52456;SDS011;38369;52.840;7.082;2022-11-15T11:50:51;6.80;;;5.35;;
52456;SDS011;38369;52.840;7.082;2022-11-15T11:53:22;5.78;;;4.93;;
52456;SDS011;38369;52.840;7.082;2022-11-15T11:55:54;10.38;;;4.47;;
52456;SDS011;38369;52.840;7.082;2022-11-15T11:58:36;6.70;;;4.90;;
52456;SDS011;38369;52.840;7.082;2022-11-15T12:01:23;10.50;;;5.38;;
52456;SDS011;38369;52.840;7.082;2022-11-15T12:06:30;7.30;;;4.43;;
52456;SDS011;38369;52.840;7.082;2022-11-15T12:11:26;7.85;;;3.67;;
52456;SDS011;38369;52.840;7.082;2022-11-15T12:13:56;8.85;;;4.53;;
52456;SDS011;38369;52.840;7.082;2022-11-15T12:16:28;7.78;;;3.53;;
52456;SDS011;38369;52.840;7.082;2022-11-15T12:18:55;7.22;;;3.75;;
52456;SDS011;38369;52.840;7.082;2022-11-15T12:23:53;5.93;;;3.50;;
52456;SDS011;38369;52.840;7.082;2022-11-15T12:26:22;6.38;;;3.70;;
52456;SDS011;38369;52.840;7.082;2022-11-15T12:28:50;7.43;;;3.47;;
52456;SDS011;38369;52.840;7.082;2022-11-15T12:31:21;6.45;;;3.22;;
52456;SDS011;38369;52.840;7.082;2022-11-15T12:33:48;5.55;;;3.20;;
52456;SDS011;38369;52.840;7.082;2022-11-15T12:38:51;3.67;;;2.70;;
52456;SDS011;38369;52.840;7.082;2022-11-15T12:41:22;4.40;;;2.92;;
52456;SDS011;38369;52.840;7.082;2022-11-15T12:43:48;7.05;;;3.33;;
52456;SDS011;38369;52.840;7.082;2022-11-15T12:51:23;5.50;;;3.83;;
52456;SDS011;38369;52.840;7.082;2022-11-15T12:59:50;5.93;;;3.17;;
52456;SDS011;38369;52.840;7.082;2022-11-15T13:02:21;8.05;;;3.58;;
52456;SDS011;38369;52.840;7.082;2022-11-15T13:04:49;8.50;;;3.38;;
52456;SDS011;38369;52.840;7.082;2022-11-15T13:10:00;4.97;;;3.38;;
52456;SDS011;38369;52.840;7.082;2022-11-15T13:14:56;5.50;;;3.22;;
52456;SDS011;38369;52.840;7.082;2022-11-15T13:22:21;4.20;;;2.15;;
52456;SDS011;38369;52.840;7.082;2022-11-15T13:25:14;3.25;;;2.00;;
52456;SDS011;38369;52.840;7.082;2022-11-15T13:27:41;5.63;;;2.40;;
52456;SDS011;38369;52.840;7.082;2022-11-15T13:30:14;4.60;;;2.05;;
52456;SDS011;38369;52.840;7.082;2022-11-15T13:32:41;4.13;;;2.30;;
52456;SDS011;38369;52.840;7.082;2022-11-15T13:35:07;3.05;;;2.20;;
52456;SDS011;38369;52.840;7.082;2022-11-15T13:37:34;6.00;;;2.30;;
52456;SDS011;38369;52.840;7.082;2022-11-15T13:42:41;4.50;;;2.40;;
52456;SDS011;38369;52.840;7.082;2022-11-15T13:45:11;6.03;;;2.30;;
52456;SDS011;38369;52.840;7.082;2022-11-15T13:47:38;6.38;;;2.42;;
52456;SDS011;38369;52.840;7.082;2022-11-15T13:50:04;4.05;;;1.80;;
52456;SDS011;38369;52.840;7.082;2022-11-15T13:52:31;5.32;;;2.85;;
52456;SDS011;38369;52.840;7.082;2022-11-15T13:55:08;3.25;;;2.38;;
52456;SDS011;38369;52.840;7.082;2022-11-15T13:57:43;3.40;;;2.60;;
52456;SDS011;38369;52.840;7.082;2022-11-15T14:02:51;3.50;;;2.42;;
52456;SDS011;38369;52.840;7.082;2022-11-15T14:05:18;2.50;;;1.73;;
52456;SDS011;38369;52.840;7.082;2022-11-15T14:10:28;3.40;;;2.50;;
52456;SDS011;38369;52.840;7.082;2022-11-15T14:12:54;5.20;;;3.03;;
52456;SDS011;38369;52.840;7.082;2022-11-15T14:15:28;3.13;;;2.17;;
52456;SDS011;38369;52.840;7.082;2022-11-15T14:17:54;3.45;;;2.60;;
52456;SDS011;38369;52.840;7.082;2022-11-15T14:20:28;3.88;;;2.90;;
52456;SDS011;38369;52.840;7.082;2022-11-15T14:23:00;4.97;;;3.30;;
52456;SDS011;38369;52.840;7.082;2022-11-15T14:25:35;6.38;;;3.30;;
52456;SDS011;38369;52.840;7.082;2022-11-15T14:28:14;10.20;;;4.28;;
52456;SDS011;38369;52.840;7.082;2022-11-15T14:30:41;8.57;;;4.30;;
52456;SDS011;38369;52.840;7.082;2022-11-15T14:35:54;7.05;;;4.05;;
52456;SDS011;38369;52.840;7.082;2022-11-15T14:38:22;6.50;;;4.53;;
52456;SDS011;38369;52.840;7.082;2022-11-15T14:40:48;5.28;;;4.03;;
52456;SDS011;38369;52.840;7.082;2022-11-15T14:43:14;4.65;;;4.15;;
52456;SDS011;38369;52.840;7.082;2022-11-15T14:45:40;5.93;;;4.18;;
52456;SDS011;38369;52.840;7.082;2022-11-15T14:48:06;5.07;;;4.57;;
52456;SDS011;38369;52.840;7.082;2022-11-15T14:50:33;5.80;;;4.43;;
52456;SDS011;38369;52.840;7.082;2022-11-15T14:52:59;7.15;;;3.88;;
52456;SDS011;38369;52.840;7.082;2022-11-15T14:55:29;6.43;;;3.95;;
52456;SDS011;38369;52.840;7.082;2022-11-15T14:58:00;4.53;;;4.05;;
52456;SDS011;38369;52.840;7.082;2022-11-15T15:00:28;5.15;;;4.40;;
52456;SDS011;38369;52.840;7.082;2022-11-15T15:02:54;7.68;;;4.25;;
52456;SDS011;38369;52.840;7.082;2022-11-15T15:05:22;5.40;;;4.18;;
52456;SDS011;38369;52.840;7.082;2022-11-15T15:07:48;6.70;;;4.28;;
52456;SDS011;38369;52.840;7.082;2022-11-15T15:10:15;4.63;;;3.90;;
52456;SDS011;38369;52.840;7.082;2022-11-15T15:12:41;6.00;;;4.13;;
52456;SDS011;38369;52.840;7.082;2022-11-15T15:15:27;9.88;;;5.07;;
52456;SDS011;38369;52.840;7.082;2022-11-15T15:17:55;5.70;;;3.95;;
52456;SDS011;38369;52.840;7.082;2022-11-15T15:20:21;4.85;;;3.65;;
52456;SDS011;38369;52.840;7.082;2022-11-15T15:22:47;5.30;;;3.47;;
52456;SDS011;38369;52.840;7.082;2022-11-15T15:25:20;8.63;;;3.38;;
52456;SDS011;38369;52.840;7.082;2022-11-15T15:27:47;5.90;;;3.97;;
52456;SDS011;38369;52.840;7.082;2022-11-15T15:30:13;4.32;;;2.97;;
52456;SDS011;38369;52.840;7.082;2022-11-15T15:32:39;4.63;;;2.92;;
52456;SDS011;38369;52.840;7.082;2022-11-15T15:35:05;4.97;;;2.85;;
52456;SDS011;38369;52.840;7.082;2022-11-15T15:37:31;7.82;;;2.90;;
52456;SDS011;38369;52.840;7.082;2022-11-15T15:39:58;7.30;;;3.10;;
52456;SDS011;38369;52.840;7.082;2022-11-15T15:42:24;5.45;;;3.05;;
52456;SDS011;38369;52.840;7.082;2022-11-15T15:44:51;6.18;;;3.10;;
52456;SDS011;38369;52.840;7.082;2022-11-15T15:47:21;5.55;;;2.65;;
52456;SDS011;38369;52.840;7.082;2022-11-15T15:49:47;3.80;;;2.45;;
52456;SDS011;38369;52.840;7.082;2022-11-15T15:52:14;8.00;;;2.75;;
52456;SDS011;38369;52.840;7.082;2022-11-15T15:54:40;7.22;;;2.47;;
52456;SDS011;38369;52.840;7.082;2022-11-15T15:57:06;3.25;;;2.10;;
52456;SDS011;38369;52.840;7.082;2022-11-15T15:59:33;6.72;;;2.67;;
52456;SDS011;38369;52.840;7.082;2022-11-15T16:01:59;3.60;;;2.40;;
52456;SDS011;38369;52.840;7.082;2022-11-15T16:04:26;6.63;;;1.92;;
52456;SDS011;38369;52.840;7.082;2022-11-15T16:06:57;7.80;;;2.13;;
52456;SDS011;38369;52.840;7.082;2022-11-15T16:09:23;5.53;;;1.83;;
52456;SDS011;38369;52.840;7.082;2022-11-15T16:12:09;3.67;;;1.90;;
52456;SDS011;38369;52.840;7.082;2022-11-15T16:14:35;2.88;;;1.90;;
52456;SDS011;38369;52.840;7.082;2022-11-15T16:17:01;5.88;;;2.05;;
52456;SDS011;38369;52.840;7.082;2022-11-15T16:19:28;3.22;;;1.83;;
52456;SDS011;38369;52.840;7.082;2022-11-15T16:21:54;4.60;;;1.73;;
52456;SDS011;38369;52.840;7.082;2022-11-15T16:24:20;4.60;;;1.90;;
52456;SDS011;38369;52.840;7.082;2022-11-15T16:26:46;3.85;;;2.05;;
52456;SDS011;38369;52.840;7.082;2022-11-15T16:29:13;4.38;;;2.20;;
52456;SDS011;38369;52.840;7.082;2022-11-15T16:31:39;3.55;;;2.28;;
52456;SDS011;38369;52.840;7.082;2022-11-15T16:34:05;5.40;;;2.92;;
52456;SDS011;38369;52.840;7.082;2022-11-15T16:36:32;6.38;;;3.40;;
52456;SDS011;38369;52.840;7.082;2022-11-15T16:38:59;4.13;;;2.35;;